D/T METAR WX W/DIR W/SPE G/SPE TEMP DEWP
7/12/19 23:20 EGPK 072320Z 20022G35KT 8000 -RA SCT012 BKN020 11/10 Q0985 -RA SSW (200°) 25.3mph 40.3mph 11°C 10°C
7/12/19 22:50 EGPK 072250Z 19019KT 8000 -RA SCT015 BKN025 11/10 Q0985 -RA S (190°) 21.9mph 11°C 10°C
7/12/19 22:20 EGPK 072220Z 18024G34KT 8000 -RA SCT020 BKN030 11/09 Q0986 -RA S (180°) 27.6mph 39.1mph 11°C 9°C
7/12/19 21:50 EGPK 072150Z 18024KT 8000 -RA SCT025 BKN040 10/09 Q0987 -RA S (180°) 27.6mph 10°C 9°C
7/12/19 21:20 EGPK 072120Z 18025KT 8000 -RA SCT025 BKN040 10/09 Q0988 -RA S (180°) 28.8mph 10°C 9°C
7/12/19 20:50 EGPK 072050Z 17022KT 8000 -RA SCT025 BKN040 11/09 Q0988 -RA S (170°) 25.3mph 11°C 9°C
7/12/19 20:20 EGPK 072020Z 17021G35KT 8000 -RA SCT020 BKN045 11/09 Q0990 -RA S (170°) 24.2mph 40.3mph 11°C 9°C
7/12/19 19:50 EGPK 071950Z 17020KT 8000 -RA SCT020 BKN045 11/09 Q0991 -RA S (170°) 23.0mph 11°C 9°C
7/12/19 19:20 EGPK 071920Z 17020KT 8000 -RA FEW014 SCT016 BKN030 11/09 Q0993 -RA S (170°) 23.0mph 11°C 9°C
7/12/19 18:50 EGPK 071850Z 18016KT 8000 -RA FEW014 SCT016 BKN030 11/09 Q0994 -RA S (180°) 18.4mph 11°C 9°C
7/12/19 18:20 EGPK 071820Z 17014KT 8000 -RA SCT012 BKN016 11/09 Q0995 -RA S (170°) 16.1mph 11°C 9°C
7/12/19 17:50 EGPK 071750Z 17014KT 8000 -RA SCT012 BKN016 11/09 Q0996 -RA S (170°) 16.1mph 11°C 9°C
7/12/19 17:20 EGPK 071720Z 17013KT 8000 -RA SCT012 BKN016 11/09 Q0997 -RA S (170°) 15.0mph 11°C 9°C
7/12/19 16:50 EGPK 071650Z 16011KT 8000 -RA FEW006 SCT014 BKN026 10/09 Q0998 -RA SSE (160°) 12.7mph 10°C 9°C
7/12/19 16:20 EGPK 071620Z 17014KT 8000 -RA FEW006 SCT014 BKN026 10/09 Q0999 -RA S (170°) 16.1mph 10°C 9°C
7/12/19 15:50 EGPK 071550Z 18015KT 8000 -RA FEW006 SCT010 BKN020 10/09 Q0999 -RA S (180°) 17.3mph 10°C 9°C
7/12/19 15:20 EGPK 071520Z 18012KT 9999 -RA FEW006 SCT010 BKN020 10/09 Q1000 -RA S (180°) 13.8mph 10°C 9°C
7/12/19 14:50 EGPK 071450Z 18012KT 9999 -RA FEW009 SCT011 BKN020 10/09 Q1000 -RA S (180°) 13.8mph 10°C 9°C
7/12/19 13:50 EGPK 071350Z 19010KT 8000 -RA FEW002 SCT008 BKN020 10/09 Q1001 -RA S (190°) 11.5mph 10°C 9°C
7/12/19 13:20 EGPK 071320Z 19012KT 8000 -RA FEW002 SCT008 BKN020 09/08 Q1002 -RA S (190°) 13.8mph 9°C 8°C
7/12/19 12:50 EGPK 071250Z 18013KT 9999 -RA FEW005 SCT011 BKN022 09/08 Q1002 -RA S (180°) 15.0mph 9°C 8°C
7/12/19 12:20 EGPK 071220Z 18012KT 9999 -RA FEW005 SCT011 BKN022 09/08 Q1003 -RA S (180°) 13.8mph 9°C 8°C
7/12/19 11:50 EGPK 071150Z 17011KT 9999 SCT011 BKN022 09/07 Q1004 S (170°) 12.7mph 9°C 7°C
7/12/19 11:20 EGPK 071120Z 19011KT 9999 SCT011 BKN022 09/07 Q1004 S (190°) 12.7mph 9°C 7°C
7/12/19 10:50 EGPK 071050Z 19011KT 9999 SCT011 BKN022 09/07 Q1005 S (190°) 12.7mph 9°C 7°C
7/12/19 10:20 EGPK 071020Z 19013KT 9999 SCT015 BKN025 09/07 Q1005 S (190°) 15.0mph 9°C 7°C
7/12/19 09:50 EGPK 070950Z 20012KT 9999 SCT015 BKN025 09/07 Q1005 SSW (200°) 13.8mph 9°C 7°C
7/12/19 09:20 EGPK 070920Z 20011KT 9999 SCT015 BKN025 09/07 Q1006 SSW (200°) 12.7mph 9°C 7°C
7/12/19 08:50 EGPK 070850Z 21013KT 9999 SCT015 BKN025 09/07 Q1006 SSW (210°) 15.0mph 9°C 7°C
7/12/19 08:20 EGPK 070820Z 22014KT 9999 FEW012 SCT020 09/07 Q1006 SW (220°) 16.1mph 9°C 7°C
7/12/19 07:50 EGPK 070750Z 23013KT 9999 FEW012 SCT020 09/07 Q1006 SW (230°) 15.0mph 9°C 7°C
7/12/19 07:20 EGPK 070720Z 23014KT 9000 FEW012 SCT020 09/07 Q1006 SW (230°) 16.1mph 9°C 7°C
7/12/19 06:50 EGPK 070650Z 24016KT 9000 -RA FEW012 BKN015 09/07 Q1006 -RA WSW (240°) 18.4mph 9°C 7°C
7/12/19 06:20 EGPK 070620Z 23011KT 9999 -DZ SCT010 BKN025 09/08 Q1006 -DZ SW (230°) 12.7mph 9°C 8°C
7/12/19 05:50 EGPK 070550Z 23013KT 9999 FEW015 BKN045 09/08 Q1006 SW (230°) 15.0mph 9°C 8°C
7/12/19 04:50 EGPK 070450Z 22012KT 9999 BKN034 09/08 Q1006 SW (220°) 13.8mph 9°C 8°C
7/12/19 03:50 EGPK 070350Z 24010KT 9999 SCT027 09/07 Q1005 WSW (240°) 11.5mph 9°C 7°C
7/12/19 02:50 EGPK 070250Z 24011KT 9999 FEW018 SCT035 09/07 Q1005 WSW (240°) 12.7mph 9°C 7°C
7/12/19 01:50 EGPK 070150Z 25011KT 9999 FEW018 SCT035 09/07 Q1004 WSW (250°) 12.7mph 9°C 7°C
7/12/19 00:50 EGPK 070050Z 25010KT 9999 FEW025 BKN045 09/07 Q1004 WSW (250°) 11.5mph 9°C 7°C
6/12/19 23:50 EGPK 062350Z 25012KT 9999 FEW025 BKN045 09/07 Q1003 WSW (250°) 13.8mph 9°C 7°C
6/12/19 22:50 EGPK 062250Z 23009KT 9999 FEW020 BKN037 09/07 Q1003 SW (230°) 10.4mph 9°C 7°C
6/12/19 22:20 EGPK 062220Z 24010KT 9999 FEW019 BKN033 09/07 Q1002 WSW (240°) 11.5mph 9°C 7°C
6/12/19 21:50 EGPK 062150Z 24010KT 9999 FEW019 BKN033 10/07 Q1002 WSW (240°) 11.5mph 10°C 7°C
6/12/19 21:20 EGPK 062120Z 26012KT 9999 FEW019 BKN033 09/07 Q1002 W (260°) 13.8mph 9°C 7°C
6/12/19 20:50 EGPK 062050Z 26015KT 9999 FEW018 BKN032 10/07 Q1002 W (260°) 17.3mph 10°C 7°C
6/12/19 19:50 EGPK 061950Z 25007KT 9999 FEW018 SCT031 09/07 Q1001 WSW (250°) 8.1mph 9°C 7°C
6/12/19 19:20 EGPK 061920Z 27013KT 9999 FEW012 SCT025 09/07 Q1001 W (270°) 15.0mph 9°C 7°C